Aeroporto :
LOGIN :

Iscrizione | Disclaimer

   EN    FR    IT 

 










Sommario :    VFR   VFR Marginale   IFR   IFR Intensivo   IFR Molto Intensivo
Visibilità : 
Base nubi : 
>= 8 km
>= 3000ft
5 / 8 km
1000 / 3000 ft
1500m / 5 km
500 / 1000 ft
800 / 1500m
200 / 500 ft
< 800m
< 200 ft
Simboli :   Temporali  Nebbia  Neve Forte  Precipitazioni Forti  Vento > 20 kt
SIGMETs :   Varie  Temporali  Ghiacco  Turbolenza  Onda orograficha  Ceneri Vulcaniche






- Altitudine del aeroporto : 412 ft
- Codice IATA : ORE


LFOJ - Orleans

ULTIMO METAR :
  • 180800Z AUTO 20005KT 9999 FEW045 02/01 Q1028

METARs OBSOLETI :
  • 180730Z AUTO 22006KT 9999 OVC044 02/01 Q1028
  • 180700Z AUTO 22007KT 9999 BKN048 02/01 Q1027
  • 180630Z AUTO 22009KT 9999 FEW041 SCT052 02/01 Q1027
  • 180600Z AUTO 21009KT 9999 OVC046 02/01 Q1027
  • 180530Z AUTO 21009KT 9999 SCT047 02/02 Q1027

TAF TAF LFOJ
Valido dal 17 a 15 ore il 18 a 15 ore UTC


171400Z 1715/1815 27016KT 9999 SCT030
PROB40
TEMPO 1715/1719 27018G28KT 4900 -SHRA SCT030TCU
PROB30
TEMPO 1802/1809 4900 BR BKN005
BECMG 1808/1811 24005KT
BECMG 1811/1813 VRB02KT



MetMap, La meteo Aeronautica in un colpo d'occhio ! - Copyright ORBIFLY Dicembre 2007 - Disclaimer

ORBIFLY MET'MAP TEAM :

Programmazione e sviluppo : Alexandra Zaïnal
Concezione : Baudouin d'Aumeries
Aiuto per la programmazione : Marc-Olivier Méhu
Supporto tecnico e logistico : Manuel Goepfert
Aiuto per la traduzione : Arnaldo La Scala

Contatto : metmap@orbifly.com




FONTI E CREDITI :

   NOAA